Terminal Aerodrome Forecast
Issued by NWS

Home | Current Version | Previous Version | Text Only | Print | Product List | Glossary On
Versions: 1 2 3 4 5 6 7 8 9 10 11 12 13 14
000
FTUS46 KSEW 220500
TAFCLM
TAF
KCLM 220537Z 2206/2306 28010KT P6SM SCT150
     FM220800 28010KT P6SM OVC008
     FM221300 28006KT P6SM OVC012
     FM221700 VRB03KT P6SM SCT012 OVC022
     FM221900 VRB03KT P6SM SCT025 BKN035 BKN100
     FM222100 VRB03KT P6SM SCT040 BKN100
      AMD NOT SKED=

USA.gov is the U.S. government's official web portal to all federal, state and local government web resources and services.